Time;durP1;ratioP1;P1;durP2;ratioP2;P2;SDS_P1;SDS_P2;PMS_P1;PMS_P2;Temp;Humidity;BMP_temperature;BMP_pressure;BME280_temperature;BME280_humidity;BME280_pressure;Samples;Min_cycle;Max_cycle;Signal;HPM_P1;HPM_P2
2023/02/23 00:00:34;;;;;;;81.60;42.05;;;;;;;8.09;100.00;100642.63;5052133;28;20041;-71
2023/02/23 00:03:00;;;;;;;79.68;43.22;;;;;;;8.02;100.00;100631.13;5061743;28;20401;-71
2023/02/23 00:05:28;;;;;;;76.63;43.55;;;;;;;7.91;100.00;100626.81;5064965;28;20044;-71
2023/02/23 00:07:54;;;;;;;76.78;42.53;;;;;;;7.90;100.00;100625.16;5066017;28;20028;-71
2023/02/23 00:10:20;;;;;;;77.35;42.47;;;;;;;7.97;100.00;100621.13;5071649;28;20031;-71
2023/02/23 00:12:48;;;;;;;76.28;42.80;;;;;;;8.16;100.00;100620.44;5059968;28;20028;-71
2023/02/23 00:15:14;;;;;;;68.88;39.90;;;;;;;8.27;100.00;100616.97;5065696;28;20040;-71
2023/02/23 00:17:40;;;;;;;76.20;41.47;;;;;;;8.32;100.00;100617.41;5067648;28;20028;-71
2023/02/23 00:20:10;;;;;;;70.65;38.80;;;;;;;8.33;100.00;100616.50;5063448;28;20039;-71
2023/02/23 00:22:40;;;;;;;72.97;37.88;;;;;;;8.27;100.00;100617.78;5067231;28;20086;-71
2023/02/23 00:25:10;;;;;;;70.00;35.92;;;;;;;8.21;100.00;100620.88;5064031;28;20035;-71
2023/02/23 00:27:42;;;;;;;73.97;38.45;;;;;;;8.26;100.00;100617.91;5062056;28;20180;-71
2023/02/23 00:30:10;;;;;;;75.65;40.63;;;;;;;8.36;100.00;100613.66;5061549;28;20021;-71
2023/02/23 00:32:35;;;;;;;73.10;38.83;;;;;;;8.42;99.05;100614.91;5064806;28;20024;-71
2023/02/23 00:35:01;;;;;;;68.28;38.65;;;;;;;8.44;98.72;100620.81;5064982;28;20510;-71
2023/02/23 00:37:27;;;;;;;71.18;38.88;;;;;;;8.44;98.28;100623.41;5070316;28;20467;-71
2023/02/23 00:39:55;;;;;;;74.53;39.75;;;;;;;8.39;97.78;100630.75;5064133;28;20028;-71
2023/02/23 00:42:21;;;;;;;71.47;41.15;;;;;;;8.35;98.56;100627.56;5063950;28;20054;-71
2023/02/23 00:44:47;;;;;;;78.28;40.08;;;;;;;8.30;99.47;100635.72;5063642;28;20029;-71
2023/02/23 00:47:13;;;;;;;74.05;41.03;;;;;;;8.17;100.00;100634.22;5062647;28;20063;-71
2023/02/23 00:49:38;;;;;;;80.05;44.38;;;;;;;8.07;100.00;100639.34;5060672;28;20135;-71
2023/02/23 00:52:04;;;;;;;80.85;43.97;;;;;;;8.03;100.00;100635.38;5064195;28;20041;-70
2023/02/23 00:54:29;;;;;;;85.90;43.13;;;;;;;7.96;100.00;100629.03;5065331;28;20056;-70
2023/02/23 00:56:55;;;;;;;80.63;43.15;;;;;;;7.88;100.00;100621.84;5067454;28;20147;-71
2023/02/23 00:59:20;;;;;;;82.57;43.60;;;;;;;7.87;100.00;100629.75;5059628;28;20052;-71
2023/02/23 01:01:46;;;;;;;78.35;42.85;;;;;;;7.89;100.00;100631.28;5063439;28;20033;-71
2023/02/23 01:04:12;;;;;;;81.63;42.97;;;;;;;7.91;100.00;100628.56;5075549;28;20033;-71
2023/02/23 01:06:38;;;;;;;86.95;43.38;;;;;;;7.91;100.00;100631.16;5064007;28;20103;-71
2023/02/23 01:09:13;;;;;;;79.13;43.63;;;;;;;7.90;100.00;100632.94;5068443;28;20029;-71
2023/02/23 01:11:40;;;;;;;79.60;42.03;;;;;;;7.90;100.00;100629.53;5050969;28;20543;-71
2023/02/23 01:14:06;;;;;;;80.43;42.63;;;;;;;7.89;100.00;100633.88;5062006;28;20060;-71
2023/02/23 01:16:33;;;;;;;69.82;37.35;;;;;;;7.87;100.00;100629.75;5065196;28;20391;-71
2023/02/23 01:19:02;;;;;;;80.28;42.95;;;;;;;7.84;100.00;100627.41;5062976;28;20128;-71
2023/02/23 01:21:31;;;;;;;77.30;42.30;;;;;;;7.78;100.00;100622.72;5069615;28;20459;-71
2023/02/23 01:23:57;;;;;;;78.88;42.58;;;;;;;7.78;100.00;100630.50;5066784;28;20036;-71
2023/02/23 01:26:28;;;;;;;79.72;42.45;;;;;;;7.78;100.00;100625.31;5067392;28;20043;-71
2023/02/23 01:28:59;;;;;;;81.65;43.95;;;;;;;7.77;100.00;100624.47;5060767;28;20025;-71
2023/02/23 01:31:26;;;;;;;73.78;40.72;;;;;;;7.75;100.00;100615.19;5048498;28;20047;-70
2023/02/23 01:33:53;;;;;;;82.07;42.15;;;;;;;7.75;100.00;100620.38;5066618;28;20430;-72
2023/02/23 01:36:19;;;;;;;79.63;42.97;;;;;;;7.79;100.00;100621.78;5064220;28;20024;-71
2023/02/23 01:38:44;;;;;;;79.82;43.03;;;;;;;7.81;100.00;100612.09;5069256;28;20032;-71
2023/02/23 01:41:09;;;;;;;81.97;42.22;;;;;;;7.88;100.00;100610.66;5071061;28;20028;-71
2023/02/23 01:43:35;;;;;;;80.43;41.85;;;;;;;7.91;100.00;100613.00;5071021;28;20047;-71
2023/02/23 01:46:01;;;;;;;84.20;41.38;;;;;;;7.96;100.00;100616.06;5067208;28;20138;-71
2023/02/23 01:48:33;;;;;;;71.60;39.00;;;;;;;7.94;100.00;100611.00;5064354;28;20468;-71
2023/02/23 01:51:02;;;;;;;67.82;36.90;;;;;;;7.96;100.00;100610.88;5063579;28;20021;-71
2023/02/23 01:53:33;;;;;;;74.47;37.85;;;;;;;8.01;100.00;100606.13;5065199;28;20207;-71
2023/02/23 01:56:10;;;;;;;68.57;35.42;;;;;;;8.02;100.00;100612.97;5065418;28;20023;-71
2023/02/23 01:58:42;;;;;;;68.50;39.80;;;;;;;7.96;100.00;100605.69;5075160;28;20028;-71
2023/02/23 02:01:08;;;;;;;74.47;38.53;;;;;;;7.85;100.00;100601.34;5068924;28;20458;-71
2023/02/23 02:03:40;;;;;;;74.78;39.05;;;;;;;7.82;100.00;100600.78;5068690;28;20111;-71
2023/02/23 02:06:08;;;;;;;71.30;38.75;;;;;;;7.81;100.00;100604.31;5063845;28;20033;-71
2023/02/23 02:08:44;;;;;;;71.43;36.80;;;;;;;7.86;100.00;100597.00;5066941;28;20056;-71
2023/02/23 02:11:56;;;;;;;72.82;36.58;;;;;;;7.88;100.00;100590.72;5064010;28;20094;-71
2023/02/23 02:14:11;;;;;;;83.63;38.00;;;;;;;7.86;100.00;100590.03;5060723;28;20079;-71
2023/02/23 02:16:55;;;;;;;76.28;39.83;;;;;;;7.83;100.00;100584.25;5073750;28;20032;-70
2023/02/23 02:19:20;;;;;;;74.45;38.70;;;;;;;7.79;100.00;100585.47;5067140;28;20089;-71
2023/02/23 02:22:10;;;;;;;74.50;38.50;;;;;;;7.77;100.00;100585.56;5069441;28;20052;-71
2023/02/23 02:24:41;;;;;;;73.35;39.78;;;;;;;7.75;100.00;100582.28;5071033;28;20368;-70
2023/02/23 02:27:19;;;;;;;71.63;40.13;;;;;;;7.74;100.00;100587.59;5064187;28;20051;-71
2023/02/23 02:30:12;;;;;;;76.88;40.63;;;;;;;7.76;100.00;100583.09;5065040;28;20107;-71
2023/02/23 02:33:18;;;;;;;77.18;41.17;;;;;;;7.76;100.00;100580.50;5065007;28;20399;-70
2023/02/23 02:36:02;;;;;;;78.63;40.58;;;;;;;7.80;100.00;100581.91;5070375;28;20058;-70
2023/02/23 02:38:49;;;;;;;72.53;38.58;;;;;;;7.78;100.00;100579.44;5070297;28;20082;-70
2023/02/23 02:41:58;;;;;;;73.15;38.33;;;;;;;7.79;100.00;100577.69;5054933;28;20032;-70
2023/02/23 02:44:55;;;;;;;74.95;39.88;;;;;;;7.81;100.00;100578.38;5065202;28;20063;-70
2023/02/23 02:47:49;;;;;;;77.75;38.78;;;;;;;7.78;100.00;100576.84;5065178;28;20029;-70
2023/02/23 02:50:49;;;;;;;75.82;38.55;;;;;;;7.85;100.00;100580.59;5065542;28;20040;-70
2023/02/23 02:53:44;;;;;;;72.28;38.63;;;;;;;7.86;100.00;100571.03;5056818;28;20060;-70
2023/02/23 02:56:13;;;;;;;75.05;38.80;;;;;;;7.85;100.00;100574.59;5050257;28;20410;-70
2023/02/23 02:58:42;;;;;;;77.60;39.58;;;;;;;7.85;100.00;100578.00;5050128;28;20102;-70
2023/02/23 04:18:37;;;;;;;62.63;34.22;;;;;;;7.79;99.75;100596.66;5062672;28;20102;-71
2023/02/23 04:21:03;;;;;;;59.90;33.28;;;;;;;7.85;99.75;100600.53;5067077;28;20046;-70
2023/02/23 04:23:29;;;;;;;61.28;34.17;;;;;;;7.88;99.60;100595.09;5069572;28;20025;-70
2023/02/23 04:25:55;;;;;;;66.93;34.88;;;;;;;7.89;99.95;100601.94;5066279;28;20472;-70
2023/02/23 04:28:22;;;;;;;64.22;34.67;;;;;;;7.91;99.50;100592.25;5066971;28;20036;-70
2023/02/23 04:30:48;;;;;;;65.80;34.58;;;;;;;7.94;99.11;100595.44;5063376;28;20119;-70
2023/02/23 04:33:13;;;;;;;69.78;35.95;;;;;;;7.93;98.98;100598.97;5063637;28;20472;-70
2023/02/23 04:35:39;;;;;;;68.63;34.63;;;;;;;7.94;99.00;100599.78;5067544;28;20063;-72
2023/02/23 04:38:04;;;;;;;69.43;37.35;;;;;;;7.92;99.28;100596.50;5065304;28;20032;-72
2023/02/23 04:40:30;;;;;;;66.55;35.40;;;;;;;7.94;99.06;100598.03;5065537;28;20467;-72
2023/02/23 04:42:56;;;;;;;65.78;34.70;;;;;;;7.96;98.88;100596.13;5065383;28;20047;-72
2023/02/23 04:45:22;;;;;;;59.30;35.10;;;;;;;7.98;98.83;100604.59;5064486;28;20462;-72
2023/02/23 04:47:48;;;;;;;62.88;36.63;;;;;;;7.97;99.11;100599.53;5063475;28;20492;-72
2023/02/23 04:50:14;;;;;;;67.07;35.22;;;;;;;7.96;100.00;100598.72;5064496;28;20123;-71
2023/02/23 04:52:39;;;;;;;71.15;35.97;;;;;;;7.92;100.00;100596.50;5063914;28;20035;-72
2023/02/23 04:55:07;;;;;;;70.25;35.00;;;;;;;7.89;100.00;100592.38;5064659;28;20036;-72
2023/02/23 04:57:33;;;;;;;63.75;33.83;;;;;;;7.89;100.00;100596.75;5065811;28;20082;-72
2023/02/23 04:59:58;;;;;;;65.93;34.42;;;;;;;7.89;100.00;100594.16;5063659;28;20553;-71
2023/02/23 05:02:24;;;;;;;67.63;35.22;;;;;;;7.91;100.00;100600.03;5067760;28;20120;-72
2023/02/23 05:04:50;;;;;;;72.75;35.53;;;;;;;7.95;100.00;100596.25;5067403;28;20044;-72
2023/02/23 05:07:16;;;;;;;68.03;36.17;;;;;;;7.96;98.70;100590.94;5063926;28;20391;-72
2023/02/23 05:09:41;;;;;;;60.22;34.08;;;;;;;7.97;98.57;100590.00;5068404;28;20387;-71
2023/02/23 05:12:07;;;;;;;70.10;35.92;;;;;;;7.95;98.83;100593.66;5063541;28;20472;-71
2023/02/23 05:14:32;;;;;;;68.32;34.47;;;;;;;7.94;98.92;100599.78;5069428;28;20044;-71
2023/02/23 05:16:58;;;;;;;59.85;31.90;;;;;;;7.93;98.54;100587.75;5068651;28;20033;-71
2023/02/23 05:19:23;;;;;;;60.00;33.13;;;;;;;7.94;98.42;100592.81;5070724;28;20036;-72
2023/02/23 05:21:49;;;;;;;63.33;32.72;;;;;;;7.95;98.37;100596.25;5072451;28;20436;-72
2023/02/23 05:24:16;;;;;;;65.20;32.05;;;;;;;7.95;98.06;100597.06;5067048;28;20047;-71
2023/02/23 05:26:42;;;;;;;59.53;31.23;;;;;;;7.95;97.69;100597.06;5067741;28;20125;-71
2023/02/23 05:29:08;;;;;;;58.25;32.30;;;;;;;7.95;97.86;100601.44;5066814;28;20115;-71
2023/02/23 05:31:33;;;;;;;56.70;31.95;;;;;;;7.96;97.64;100590.94;5063519;28;20149;-71
2023/02/23 05:33:58;;;;;;;63.13;32.88;;;;;;;7.98;97.24;100591.63;5074758;28;20035;-71
2023/02/23 05:36:24;;;;;;;58.17;32.35;;;;;;;7.97;97.75;100595.19;5069558;28;20434;-72
2023/02/23 05:38:49;;;;;;;61.50;32.80;;;;;;;7.95;97.86;100591.06;5070953;28;20038;-71
2023/02/23 05:41:18;;;;;;;63.10;34.35;;;;;;;7.94;97.97;100590.25;5071406;28;20037;-71
2023/02/23 05:43:43;;;;;;;63.53;33.75;;;;;;;7.96;98.23;100590.13;5066104;28;20595;-71
2023/02/23 05:46:13;;;;;;;60.53;33.92;;;;;;;7.94;98.40;100594.59;5069339;28;20150;-71
2023/02/23 05:48:39;;;;;;;65.72;34.92;;;;;;;7.93;98.71;100591.19;5071734;28;20029;-71
2023/02/23 05:51:08;;;;;;;69.43;37.25;;;;;;;7.95;98.48;100593.66;5066976;28;20056;-71
2023/02/23 05:53:33;;;;;;;71.75;36.67;;;;;;;7.96;98.63;100588.34;5061826;28;20032;-72
2023/02/23 05:56:00;;;;;;;66.55;36.85;;;;;;;7.98;98.32;100594.22;5065495;28;20326;-72
2023/02/23 05:58:26;;;;;;;65.28;35.78;;;;;;;7.99;98.27;100588.09;5069161;28;20025;-72
2023/02/23 06:00:51;;;;;;;65.68;35.80;;;;;;;8.01;97.80;100589.75;5050828;28;20051;-71
2023/02/23 06:03:17;;;;;;;73.22;38.40;;;;;;;8.01;97.80;100600.94;5067489;28;20392;-72
2023/02/23 06:05:49;;;;;;;67.35;35.75;;;;;;;7.99;97.64;100595.06;5071170;28;20044;-71
2023/02/23 06:08:15;;;;;;;72.03;37.28;;;;;;;8.02;97.90;100597.41;5052500;28;20043;-72
2023/02/23 06:10:40;;;;;;;69.22;36.25;;;;;;;8.03;98.20;100601.66;5064511;28;20415;-72
2023/02/23 06:13:05;;;;;;;71.63;37.97;;;;;;;8.03;98.56;100604.25;5071942;28;20112;-72
2023/02/23 06:15:31;;;;;;;67.85;35.78;;;;;;;8.03;98.55;100606.84;5077767;28;20055;-71
2023/02/23 06:17:57;;;;;;;72.15;37.50;;;;;;;8.04;98.62;100602.44;5072404;28;20050;-72
2023/02/23 06:20:22;;;;;;;67.88;35.50;;;;;;;8.07;98.34;100605.59;5064779;28;20029;-71
2023/02/23 06:22:47;;;;;;;63.05;33.70;;;;;;;8.08;97.88;100609.03;5061213;28;20064;-72
2023/02/23 06:25:13;;;;;;;65.60;32.47;;;;;;;8.09;97.47;100614.09;5063088;28;20553;-71
2023/02/23 06:27:39;;;;;;;62.05;31.70;;;;;;;8.07;97.38;100613.38;5071698;28;20044;-72
2023/02/23 06:30:05;;;;;;;59.83;32.65;;;;;;;8.05;97.32;100617.88;5065685;28;20020;-72
2023/02/23 06:32:31;;;;;;;64.28;34.15;;;;;;;8.05;97.34;100619.66;5066807;28;20399;-72
2023/02/23 06:34:56;;;;;;;62.75;32.20;;;;;;;8.03;97.52;100625.00;5055814;28;20024;-71
2023/02/23 06:37:22;;;;;;;62.88;34.47;;;;;;;8.02;97.70;100622.53;5074474;28;20408;-72
2023/02/23 06:39:48;;;;;;;62.28;33.00;;;;;;;8.02;97.77;100633.72;5064938;28;20037;-72
2023/02/23 06:42:14;;;;;;;69.80;35.92;;;;;;;8.04;97.53;100631.81;5061585;28;20483;-71
2023/02/23 06:44:39;;;;;;;68.90;36.13;;;;;;;8.05;97.41;100630.03;5067270;28;20131;-72
2023/02/23 06:47:05;;;;;;;63.00;34.72;;;;;;;8.06;97.67;100634.28;5058685;28;20464;-72
2023/02/23 06:49:30;;;;;;;62.85;34.85;;;;;;;8.06;97.41;100640.28;5063574;28;21913;-72
2023/02/23 06:51:55;;;;;;;63.63;35.45;;;;;;;8.06;97.46;100642.88;5061386;28;20383;-72
2023/02/23 06:54:22;;;;;;;71.57;36.22;;;;;;;8.09;97.55;100639.22;5072038;28;20127;-72
2023/02/23 06:56:48;;;;;;;63.88;34.67;;;;;;;8.11;97.61;100643.34;5069886;28;20033;-72
2023/02/23 06:59:14;;;;;;;64.35;34.33;;;;;;;8.11;97.60;100648.53;5070702;28;20051;-72
2023/02/23 07:01:41;;;;;;;74.10;37.15;;;;;;;8.13;97.62;100645.81;5064908;28;20028;-72
2023/02/23 07:04:06;;;;;;;65.63;35.78;;;;;;;8.15;97.80;100643.91;5063122;28;20028;-72
2023/02/23 07:06:32;;;;;;;66.07;34.95;;;;;;;8.16;97.68;100648.97;5067792;28;20043;-72
2023/02/23 07:08:57;;;;;;;68.43;36.15;;;;;;;8.17;97.67;100648.03;5062056;28;20621;-72
2023/02/23 07:11:23;;;;;;;63.42;35.20;;;;;;;8.20;97.81;100647.78;5066772;28;20128;-72
2023/02/23 07:13:48;;;;;;;68.15;36.55;;;;;;;8.24;97.82;100645.78;5072785;28;20028;-72
2023/02/23 07:16:15;;;;;;;70.20;37.40;;;;;;;8.26;97.90;100655.06;5068538;28;20396;-72
2023/02/23 07:18:41;;;;;;;64.43;34.60;;;;;;;8.26;97.51;100652.47;5071373;28;20583;-71
2023/02/23 07:21:06;;;;;;;70.50;35.00;;;;;;;8.24;97.21;100656.97;5062350;28;20039;-71
2023/02/23 07:23:32;;;;;;;64.70;34.50;;;;;;;8.23;97.38;100657.09;5065250;28;20041;-72
2023/02/23 07:25:59;;;;;;;58.90;33.67;;;;;;;8.19;97.57;100656.53;5063303;28;20036;-72
2023/02/23 07:28:27;;;;;;;68.00;34.53;;;;;;;8.17;97.61;100650.63;5065135;28;20037;-72
2023/02/23 07:30:57;;;;;;;71.28;35.40;;;;;;;8.18;97.71;100654.03;5059777;28;20628;-72
2023/02/23 07:33:23;;;;;;;63.40;34.88;;;;;;;8.21;97.44;100656.41;5069082;28;20464;-72
2023/02/23 07:35:50;;;;;;;62.67;33.47;;;;;;;8.25;97.01;100656.03;5049086;28;20151;-72
2023/02/23 07:38:15;;;;;;;62.58;33.72;;;;;;;8.23;96.64;100654.50;5074389;28;20032;-72
2023/02/23 07:40:41;;;;;;;63.65;32.72;;;;;;;8.22;96.48;100661.47;5064907;28;20078;-71
2023/02/23 07:43:07;;;;;;;56.60;31.67;;;;;;;8.20;96.45;100663.38;5064206;28;20095;-72
2023/02/23 07:45:33;;;;;;;59.95;32.58;;;;;;;8.20;96.48;100660.75;5054780;28;20375;-72
2023/02/23 07:47:58;;;;;;;60.72;32.72;;;;;;;8.19;96.44;100661.72;5064630;28;20498;-72
2023/02/23 07:50:25;;;;;;;62.17;33.55;;;;;;;8.20;96.63;100667.72;5066888;28;20016;-72
2023/02/23 07:52:51;;;;;;;62.53;34.28;;;;;;;8.22;96.26;100664.06;5069509;28;20037;-71
2023/02/23 07:55:17;;;;;;;65.45;34.33;;;;;;;8.24;96.41;100667.34;5071418;28;20043;-71
2023/02/23 07:57:42;;;;;;;63.58;33.63;;;;;;;8.25;96.00;100666.41;5072281;28;20454;-72
2023/02/23 08:00:08;;;;;;;76.07;33.95;;;;;;;8.27;96.01;100669.72;5069756;28;20067;-71
2023/02/23 08:02:34;;;;;;;67.07;33.55;;;;;;;8.30;95.90;100671.22;5068004;28;20033;-72
2023/02/23 08:04:59;;;;;;;67.07;34.58;;;;;;;8.32;95.96;100666.72;5068679;28;20135;-72
2023/02/23 08:07:25;;;;;;;61.50;31.67;;;;;;;8.34;95.90;100671.84;5068152;28;20040;-72
2023/02/23 08:09:51;;;;;;;60.42;31.63;;;;;;;8.35;95.77;100661.31;5067206;28;20033;-72
2023/02/23 08:12:16;;;;;;;69.88;32.92;;;;;;;8.36;95.98;100664.75;5069852;28;20434;-72
2023/02/23 08:14:42;;;;;;;55.50;32.08;;;;;;;8.38;95.63;100668.03;5069281;28;20119;-71
2023/02/23 08:17:08;;;;;;;61.75;32.50;;;;;;;8.40;95.56;100666.97;5063272;28;20622;-71
2023/02/23 08:19:34;;;;;;;60.95;34.28;;;;;;;8.42;95.55;100662.47;5069782;28;20067;-71
2023/02/23 08:22:00;;;;;;;67.30;33.20;;;;;;;8.45;95.45;100666.59;5066070;28;20047;-71
2023/02/23 08:24:26;;;;;;;62.15;32.22;;;;;;;8.48;95.40;100676.72;5051701;28;20032;-71
2023/02/23 08:26:52;;;;;;;64.60;33.53;;;;;;;8.48;95.34;100672.38;5065298;28;20056;-71
2023/02/23 08:29:19;;;;;;;58.28;33.15;;;;;;;8.50;95.46;100669.66;5069718;28;20113;-71
2023/02/23 08:31:45;;;;;;;63.05;34.65;;;;;;;8.51;95.11;100673.84;5068578;28;20054;-72
2023/02/23 08:34:12;;;;;;;60.22;31.75;;;;;;;8.51;95.30;100669.47;5069541;28;20025;-71
2023/02/23 08:36:39;;;;;;;62.00;34.28;;;;;;;8.53;95.16;100672.78;5066565;28;20044;-71
2023/02/23 08:39:06;;;;;;;59.92;33.13;;;;;;;8.55;95.09;100667.47;5069101;28;20051;-71
2023/02/23 08:41:33;;;;;;;68.43;33.42;;;;;;;8.57;95.02;100673.34;5066225;28;20032;-72
2023/02/23 08:43:58;;;;;;;66.53;35.60;;;;;;;8.59;94.95;100669.69;5067711;28;20044;-71
2023/02/23 08:46:24;;;;;;;65.40;34.03;;;;;;;8.61;94.89;100672.16;5068813;28;20059;-71
2023/02/23 08:48:49;;;;;;;70.38;36.35;;;;;;;8.61;94.89;100677.34;5072477;28;20029;-71
2023/02/23 08:51:15;;;;;;;63.92;34.38;;;;;;;8.63;95.20;100678.03;5073640;28;20025;-71
2023/02/23 08:53:40;;;;;;;71.53;35.20;;;;;;;8.68;94.68;100677.66;5066022;28;20060;-71
2023/02/23 08:56:07;;;;;;;58.78;34.78;;;;;;;8.72;94.58;100679.88;5071543;28;20021;-71
2023/02/23 08:58:34;;;;;;;64.18;34.45;;;;;;;8.73;94.94;100680.72;5072927;28;20119;-71
2023/02/23 09:01:00;;;;;;;65.72;34.15;;;;;;;8.75;95.11;100682.22;5072640;28;20108;-71
2023/02/23 09:03:29;;;;;;;67.13;34.70;;;;;;;8.80;95.12;100677.47;5071362;28;20033;-71
2023/02/23 09:05:55;;;;;;;70.10;35.35;;;;;;;8.83;95.13;100682.41;5072037;28;20045;-71
2023/02/23 09:08:21;;;;;;;67.07;36.92;;;;;;;8.89;95.19;100684.50;5070990;28;20036;-71
2023/02/23 09:10:47;;;;;;;63.45;37.15;;;;;;;8.97;94.98;100683.88;5072344;28;20039;-71
2023/02/23 09:13:13;;;;;;;70.05;36.58;;;;;;;8.99;95.24;100682.75;5073304;28;20484;-71
2023/02/23 09:15:39;;;;;;;62.97;36.00;;;;;;;9.03;95.22;100682.50;5073008;28;20083;-71
2023/02/23 09:18:06;;;;;;;69.65;37.13;;;;;;;9.09;95.52;100692.38;5070732;28;20052;-71
2023/02/23 09:20:31;;;;;;;71.00;39.30;;;;;;;9.11;95.47;100690.47;5061887;28;20032;-71
2023/02/23 09:22:57;;;;;;;71.82;38.05;;;;;;;9.16;95.76;100693.53;5066174;28;20039;-71
2023/02/23 09:25:23;;;;;;;72.25;37.22;;;;;;;9.20;96.10;100684.50;5073974;28;20032;-71
2023/02/23 09:27:50;;;;;;;66.38;36.85;;;;;;;9.23;96.47;100699.84;5080732;28;20047;-71
2023/02/23 09:30:19;;;;;;;75.95;39.00;;;;;;;9.21;96.18;100692.19;5068034;28;20025;-71
2023/02/23 09:32:50;;;;;;;70.18;38.00;;;;;;;9.24;96.02;100696.31;5055508;28;20059;-71
2023/02/23 09:35:18;;;;;;;76.97;38.53;;;;;;;9.24;96.23;100697.13;5045637;28;20037;-71
2023/02/23 09:37:47;;;;;;;72.82;37.85;;;;;;;9.22;95.99;100704.22;5041591;28;20036;-71
2023/02/23 09:40:17;;;;;;;64.47;34.95;;;;;;;9.18;95.17;100697.63;5062873;28;20048;-71
2023/02/23 09:43:12;;;;;;;71.80;36.17;;;;;;;9.10;93.08;100701.84;5068261;28;20056;-71
2023/02/23 09:45:42;;;;;;;63.13;33.85;;;;;;;9.11;93.88;100704.31;5050557;28;20044;-71
2023/02/23 09:48:15;;;;;;;58.50;34.42;;;;;;;9.09;93.38;100703.59;5071847;28;20067;-70
2023/02/23 09:50:50;;;;;;;63.83;33.78;;;;;;;9.13;93.66;100704.19;5068205;28;20376;-71
2023/02/23 09:53:39;;;;;;;64.13;33.67;;;;;;;9.12;92.46;100705.94;5050359;28;20032;-71
2023/02/23 09:56:20;;;;;;;57.83;32.67;;;;;;;9.12;92.72;100705.94;5067625;28;20017;-71
2023/02/23 09:58:45;;;;;;;65.00;32.83;;;;;;;9.16;92.82;100714.31;5066283;28;20025;-71
2023/02/23 10:01:45;;;;;;;60.63;33.85;;;;;;;9.14;91.69;100708.44;5053926;28;20515;-71
2023/02/23 10:04:31;;;;;;;59.33;32.08;;;;;;;9.17;91.50;100713.38;5071382;28;20684;-71
2023/02/23 10:06:57;;;;;;;63.95;32.72;;;;;;;9.19;92.44;100719.25;5067145;28;20039;-71
2023/02/23 10:09:50;;;;;;;61.85;32.72;;;;;;;9.21;92.28;100714.75;5071817;28;20032;-71
2023/02/23 10:12:41;;;;;;;62.63;33.13;;;;;;;9.23;92.00;100705.06;5074796;28;20095;-71
2023/02/23 10:15:12;;;;;;;62.35;34.22;;;;;;;9.28;92.05;100713.28;5070292;28;20024;-71
2023/02/23 10:18:08;;;;;;;58.60;33.03;;;;;;;9.35;91.30;100708.41;5048440;28;20032;-71
2023/02/23 10:20:59;;;;;;;64.80;33.87;;;;;;;9.39;90.98;100704.59;5070558;28;20051;-71
2023/02/23 10:23:30;;;;;;;60.28;32.40;;;;;;;9.46;90.97;100700.47;5068297;28;20294;-71
2023/02/23 10:26:00;;;;;;;54.28;31.60;;;;;;;9.52;90.81;100705.16;5068087;28;20072;-71
2023/02/23 10:28:28;;;;;;;57.63;33.08;;;;;;;9.63;91.17;100703.28;5076729;28;20412;-71
2023/02/23 10:30:54;;;;;;;58.85;32.90;;;;;;;9.70;90.65;100700.16;5069453;28;20945;-71
2023/02/23 10:33:21;;;;;;;65.40;34.15;;;;;;;9.72;90.59;100706.88;5065756;28;20024;-71
2023/02/23 10:35:51;;;;;;;55.80;32.00;;;;;;;9.68;90.07;100709.88;5068441;28;20048;-71
2023/02/23 10:38:18;;;;;;;62.70;33.35;;;;;;;9.68;90.79;100710.69;5050579;28;20040;-71
2023/02/23 10:40:49;;;;;;;56.08;31.58;;;;;;;9.71;90.58;100707.00;5053894;28;20036;-71
2023/02/23 10:43:15;;;;;;;59.45;32.47;;;;;;;9.79;90.91;100710.59;5044330;28;20154;-71
2023/02/23 10:45:47;;;;;;;56.75;32.25;;;;;;;9.83;90.38;100703.34;5075630;28;20028;-71
2023/02/23 10:48:18;;;;;;;62.50;32.92;;;;;;;9.85;89.74;100704.84;5069168;28;20509;-71
2023/02/23 10:50:47;;;;;;;58.13;33.50;;;;;;;9.88;89.88;100699.38;5074881;28;20032;-71
2023/02/23 10:53:16;;;;;;;65.57;34.53;;;;;;;9.92;89.71;100694.72;5068896;28;20115;-71
2023/02/23 10:55:44;;;;;;;62.65;32.47;;;;;;;9.99;90.11;100701.84;5071181;28;20040;-71
2023/02/23 10:58:18;;;;;;;62.00;32.22;;;;;;;10.00;89.84;100697.47;5075497;28;20036;-71
2023/02/23 11:01:04;;;;;;;59.47;34.03;;;;;;;10.07;89.15;100701.16;5073833;28;20770;-71
2023/02/23 11:03:34;;;;;;;55.72;31.05;;;;;;;9.99;89.03;100694.03;5069187;28;20063;-71
2023/02/23 11:06:00;;;;;;;57.65;31.55;;;;;;;9.98;88.78;100702.78;5065694;28;20541;-71
2023/02/23 11:08:32;;;;;;;69.32;33.47;;;;;;;10.01;89.19;100699.09;5064945;28;20025;-71
2023/02/23 11:11:05;;;;;;;62.50;32.33;;;;;;;10.03;88.67;100701.56;5069552;28;20035;-71
2023/02/23 11:13:39;;;;;;;68.60;34.42;;;;;;;10.02;88.80;100698.16;5068276;28;20128;-71
2023/02/23 11:16:14;;;;;;;60.90;33.67;;;;;;;10.09;89.28;100695.81;5063569;28;20079;-71
2023/02/23 11:18:56;;;;;;;66.03;34.75;;;;;;;10.16;89.29;100689.94;5070390;28;20135;-71
2023/02/23 11:21:28;;;;;;;61.17;32.97;;;;;;;10.18;88.53;100688.03;5067497;28;20059;-71
2023/02/23 11:24:04;;;;;;;65.03;32.08;;;;;;;10.30;88.70;100683.53;5049326;28;20056;-71
2023/02/23 11:26:29;;;;;;;55.00;30.98;;;;;;;10.32;88.32;100684.22;5065649;28;20518;-71
2023/02/23 11:28:59;;;;;;;60.13;34.35;;;;;;;10.30;87.90;100676.56;5074166;28;20076;-71
2023/02/23 11:31:33;;;;;;;58.13;32.22;;;;;;;10.39;88.01;100681.91;5075615;28;20051;-71
2023/02/23 11:34:02;;;;;;;57.03;33.22;;;;;;;10.50;88.45;100677.34;5066262;28;20047;-71
2023/02/23 11:36:34;;;;;;;60.60;32.95;;;;;;;10.61;87.95;100677.19;5067436;28;20028;-71
2023/02/23 11:39:22;;;;;;;53.42;31.95;;;;;;;10.61;86.67;100681.59;5037194;28;20119;-71
2023/02/23 11:42:31;;;;;;;62.88;33.80;;;;;;;10.66;87.36;100676.78;5066392;28;20059;-71
2023/02/23 11:45:04;;;;;;;58.83;32.30;;;;;;;10.69;87.67;100665.25;5023714;28;20037;-71
2023/02/23 11:47:33;;;;;;;51.78;31.77;;;;;;;10.74;87.93;100665.66;5024344;28;20539;-71
2023/02/23 11:50:02;;;;;;;59.50;32.45;;;;;;;10.77;87.18;100668.81;5022295;28;20488;-71
2023/02/23 11:52:28;;;;;;;52.65;32.42;;;;;;;10.87;87.44;100668.78;5022759;28;20067;-71
2023/02/23 11:54:58;;;;;;;54.10;30.63;;;;;;;10.98;88.04;100673.81;5022512;28;20029;-72
2023/02/23 11:57:32;;;;;;;53.75;31.92;;;;;;;11.23;87.49;100665.38;5024663;28;20126;-72
2023/02/23 12:00:00;;;;;;;57.30;33.70;;;;;;;11.33;86.94;100660.13;5023056;28;20072;-71
2023/02/23 12:02:31;;;;;;;54.05;32.67;;;;;;;11.13;86.88;100659.38;5025915;28;20045;-72
2023/02/23 12:05:18;;;;;;;56.67;32.92;;;;;;;11.11;86.26;100660.47;5022736;28;20724;-71
2023/02/23 12:08:06;;;;;;;58.05;32.42;;;;;;;11.15;86.44;100646.19;5023147;28;20029;-71
2023/02/23 12:10:42;;;;;;;55.45;31.77;;;;;;;11.24;86.21;100647.94;5008046;28;20935;-71
2023/02/23 12:13:36;;;;;;;54.80;32.80;;;;;;;11.36;86.41;100644.13;5024616;28;20083;-71
2023/02/23 12:16:26;;;;;;;52.53;33.10;;;;;;;11.33;85.52;100649.69;5023250;28;20532;-72
2023/02/23 12:19:01;;;;;;;58.85;33.67;;;;;;;11.31;87.29;100638.56;5048419;28;20060;-71
2023/02/23 12:21:45;;;;;;;54.83;31.75;;;;;;;11.38;87.12;100646.59;5063411;28;20593;-71
2023/02/23 12:24:19;;;;;;;59.40;32.72;;;;;;;11.45;87.20;100647.66;5067311;28;20154;-72
2023/02/23 12:26:53;;;;;;;54.50;32.35;;;;;;;11.51;87.15;100647.91;5056482;28;20042;-71
2023/02/23 12:29:53;;;;;;;57.50;33.05;;;;;;;11.64;87.25;100645.78;5059552;28;21444;-72
2023/02/23 12:32:42;;;;;;;52.05;31.42;;;;;;;11.65;86.10;100644.00;4993521;28;20063;-71
2023/02/23 12:35:21;;;;;;;53.35;31.00;;;;;;;11.74;87.11;100637.06;5060335;28;20036;-71
2023/02/23 12:37:59;;;;;;;53.80;33.65;;;;;;;11.86;86.58;100635.91;5072286;28;20038;-71
2023/02/23 12:40:27;;;;;;;54.72;33.45;;;;;;;11.87;86.54;100632.31;5065422;28;20029;-71
2023/02/23 12:43:00;;;;;;;57.38;34.53;;;;;;;11.87;86.89;100629.72;5071705;28;20564;-71
2023/02/23 12:45:58;;;;;;;52.88;34.13;;;;;;;11.89;86.65;100635.59;5047619;28;20040;-71